createdAt,value
2019-05-26T00:00:30.675Z,94605.98
2019-05-26T00:02:57.203Z,94603.72
2019-05-26T00:05:23.724Z,94604.24
2019-05-26T00:07:50.558Z,94598.95
2019-05-26T00:10:17.241Z,94593.58
2019-05-26T00:12:43.811Z,94595.50
2019-05-26T00:15:10.629Z,94599.85
2019-05-26T00:17:37.223Z,94601.59
2019-05-26T00:20:07.232Z,94602.00
2019-05-26T00:22:33.766Z,94603.86
2019-05-26T00:25:00.452Z,94602.94
2019-05-26T00:27:26.972Z,94603.05
2019-05-26T00:29:53.480Z,94595.95
2019-05-26T00:32:20.007Z,94599.56
2019-05-26T00:34:46.666Z,94597.89
2019-05-26T00:37:13.182Z,94593.50
2019-05-26T00:39:39.702Z,94598.33
2019-05-26T00:42:06.236Z,94592.16
2019-05-26T00:44:32.863Z,94589.88
2019-05-26T00:46:59.594Z,94585.45
2019-05-26T00:49:26.153Z,94581.83
2019-05-26T00:51:52.691Z,94585.36
2019-05-26T00:54:20.438Z,94584.61
2019-05-26T00:56:46.962Z,94588.63
2019-05-26T00:59:13.617Z,94582.02
2019-05-26T01:01:40.186Z,94583.12
2019-05-26T01:04:06.715Z,94581.27
2019-05-26T01:06:33.258Z,94586.30
2019-05-26T01:08:59.792Z,94586.11
2019-05-26T01:11:26.315Z,94580.06
2019-05-26T01:13:52.874Z,94586.80
2019-05-26T01:16:19.399Z,94584.84
2019-05-26T01:18:45.926Z,94583.42
2019-05-26T01:21:12.524Z,94591.67
2019-05-26T01:23:39.101Z,94590.67
2019-05-26T01:26:05.649Z,94590.59
2019-05-26T01:28:32.280Z,94581.63
2019-05-26T01:30:58.857Z,94587.00
2019-05-26T01:33:25.402Z,94585.88
2019-05-26T01:35:52.323Z,94587.23
2019-05-26T01:38:24.309Z,94577.92
2019-05-26T01:40:47.362Z,94588.44
2019-05-26T01:43:13.890Z,94581.82
2019-05-26T01:45:40.429Z,94589.42
2019-05-26T01:48:07.366Z,94587.84
2019-05-26T01:50:34.786Z,94589.09
2019-05-26T01:53:01.315Z,94591.88
2019-05-26T01:55:27.936Z,94595.64
2019-05-26T01:57:54.467Z,94588.66
2019-05-26T02:00:21.488Z,94584.13
2019-05-26T02:02:48.024Z,94587.75
2019-05-26T02:05:14.605Z,94580.22
2019-05-26T02:07:41.124Z,94588.44
2019-05-26T02:10:07.956Z,94592.69
2019-05-26T02:12:34.551Z,94590.15
2019-05-26T02:15:01.203Z,94586.88
2019-05-26T02:17:27.743Z,94589.43
2019-05-26T02:19:54.281Z,94590.23
2019-05-26T02:22:20.809Z,94591.76
2019-05-26T02:24:47.339Z,94595.01
2019-05-26T02:27:13.890Z,94593.20
2019-05-26T02:29:40.432Z,94597.44
2019-05-26T02:32:06.953Z,94591.77
2019-05-26T02:34:33.613Z,94590.13
2019-05-26T02:37:00.162Z,94594.14
2019-05-26T02:39:26.696Z,94588.66
2019-05-26T02:41:53.215Z,94595.48
2019-05-26T02:44:19.806Z,94590.63
2019-05-26T02:46:46.327Z,94588.45
2019-05-26T02:49:12.900Z,94577.95
2019-05-26T02:51:41.467Z,94589.66
2019-05-26T02:54:08.009Z,94589.33
2019-05-26T02:56:34.513Z,94586.94
2019-05-26T02:59:01.047Z,94587.25
2019-05-26T03:01:29.826Z,94592.27
2019-05-26T03:03:56.567Z,94584.64
2019-05-26T03:06:24.897Z,94579.70
2019-05-26T03:08:52.117Z,94581.05
2019-05-26T03:11:19.550Z,94576.64
2019-05-26T03:13:48.072Z,94577.80
2019-05-26T03:16:17.309Z,94573.16
2019-05-26T03:18:46.041Z,94572.33
2019-05-26T03:21:14.476Z,94570.67
2019-05-26T03:23:44.396Z,94567.98
2019-05-26T03:26:12.520Z,94572.78
2019-05-26T03:28:39.065Z,94570.59
2019-05-26T03:31:05.588Z,94576.27
2019-05-26T03:33:32.114Z,94576.67
2019-05-26T03:35:58.648Z,94574.36
2019-05-26T03:38:25.168Z,94582.98
2019-05-26T03:40:51.747Z,94581.89
2019-05-26T03:43:18.264Z,94585.10
2019-05-26T03:46:02.798Z,94584.86
2019-05-26T03:48:29.322Z,94584.37
2019-05-26T03:50:55.863Z,94586.25
2019-05-26T03:53:22.372Z,94583.73
2019-05-26T03:55:48.984Z,94576.88
2019-05-26T03:58:15.517Z,94581.94
2019-05-26T04:00:42.055Z,94590.71
2019-05-26T04:03:08.574Z,94579.27
2019-05-26T04:05:35.105Z,94587.98
2019-05-26T04:08:04.911Z,94587.38
2019-05-26T04:10:30.132Z,94588.73
2019-05-26T04:12:56.741Z,94590.78
2019-05-26T04:15:23.266Z,94596.42
2019-05-26T04:17:49.792Z,94587.98
2019-05-26T04:20:17.302Z,94592.11
2019-05-26T04:22:43.849Z,94596.25
2019-05-26T04:25:10.772Z,94597.51
2019-05-26T04:27:37.299Z,94586.69
2019-05-26T04:30:06.917Z,94580.20
2019-05-26T04:32:33.438Z,94584.20
2019-05-26T04:35:00.002Z,94580.30
2019-05-26T04:37:26.498Z,94578.12
2019-05-26T04:39:53.016Z,94585.05
2019-05-26T04:42:19.553Z,94579.21
2019-05-26T04:44:46.115Z,94574.64
2019-05-26T04:47:12.660Z,94589.91
2019-05-26T04:49:39.250Z,94594.09
2019-05-26T04:52:05.814Z,94593.41
2019-05-26T04:54:32.320Z,94596.25
2019-05-26T04:56:59.058Z,94596.17
2019-05-26T04:59:25.586Z,94597.87
2019-05-26T05:01:52.150Z,94601.66
2019-05-26T05:04:18.655Z,94607.26
2019-05-26T05:06:45.183Z,94606.74
2019-05-26T05:09:11.703Z,94611.52
2019-05-26T05:11:38.239Z,94615.44
2019-05-26T05:14:04.770Z,94617.64
2019-05-26T05:16:31.295Z,94620.35
2019-05-26T05:18:57.818Z,94628.87
2019-05-26T05:21:24.342Z,94630.63
2019-05-26T05:23:50.875Z,94636.32
2019-05-26T05:26:17.422Z,94639.36
2019-05-26T05:28:43.961Z,94643.84
2019-05-26T05:31:10.561Z,94644.08
2019-05-26T05:33:37.095Z,94644.11
2019-05-26T05:36:03.612Z,94639.06
2019-05-26T05:38:30.201Z,94642.10
2019-05-26T05:40:59.853Z,94645.63
2019-05-26T05:43:25.155Z,94643.49
2019-05-26T05:45:51.675Z,94647.04
2019-05-26T05:48:18.198Z,94646.59
2019-05-26T05:50:45.812Z,94648.66
2019-05-26T05:53:12.334Z,94654.05
2019-05-26T05:55:38.845Z,94650.13
2019-05-26T05:58:05.444Z,94649.42
2019-05-26T06:00:31.960Z,94656.86
2019-05-26T06:02:58.491Z,94651.80
2019-05-26T06:05:26.057Z,94654.50
2019-05-26T06:07:52.685Z,94655.97
2019-05-26T06:10:19.251Z,94665.34
2019-05-26T06:12:45.882Z,94661.87
2019-05-26T06:15:14.368Z,94640.48
2019-05-26T06:17:41.484Z,94645.20
2019-05-26T06:20:09.921Z,94656.14
2019-05-26T06:22:36.459Z,94651.61
2019-05-26T06:25:05.680Z,94656.44
2019-05-26T06:27:32.230Z,94657.39
2019-05-26T06:29:59.379Z,94653.81
2019-05-26T06:32:26.071Z,94647.88
2019-05-26T06:34:54.102Z,94653.42
2019-05-26T06:37:20.647Z,94649.73
2019-05-26T06:39:47.169Z,94644.81
2019-05-26T06:42:13.793Z,94634.00
2019-05-26T06:44:53.131Z,94612.52
2019-05-26T06:47:10.856Z,94658.78
2019-05-26T06:49:37.382Z,94626.75
2019-05-26T06:52:03.945Z,94629.50
2019-05-26T06:54:30.475Z,94644.45
2019-05-26T06:56:57.103Z,94645.98
2019-05-26T06:59:23.640Z,94640.94
2019-05-26T07:01:50.158Z,94604.70
2019-05-26T07:04:16.707Z,94656.31
2019-05-26T07:06:43.229Z,94613.55
2019-05-26T07:09:09.760Z,94592.88
2019-05-26T07:11:49.361Z,94587.72
2019-05-26T07:14:04.725Z,94543.64
2019-05-26T07:16:38.127Z,94528.47
2019-05-26T07:18:59.699Z,94511.81
2019-05-26T07:21:26.232Z,94492.36
2019-05-26T07:23:52.767Z,94442.16
2019-05-26T07:26:19.320Z,94421.34
2019-05-26T07:28:45.850Z,105925.04
2019-05-26T07:31:12.475Z,116181.86
2019-05-26T07:33:39.031Z,121244.27
2019-05-26T07:36:05.548Z,123662.41
2019-05-26T07:38:32.084Z,125454.05
2019-05-26T07:40:58.603Z,126229.55
2019-05-26T07:43:27.943Z,126539.93
2019-05-26T07:45:53.609Z,126713.58
2019-05-26T07:48:20.124Z,128345.83
2019-05-26T07:50:46.654Z,128668.81
2019-05-26T07:53:13.163Z,129226.86
2019-05-26T07:55:39.701Z,128914.45
2019-05-26T07:58:06.218Z,130746.92
2019-05-26T08:00:32.747Z,152315.59
2019-05-26T08:02:59.262Z,152198.08
2019-05-26T08:05:25.795Z,152049.22
2019-05-26T08:07:52.328Z,152209.80
2019-05-26T08:10:18.852Z,152263.34
2019-05-26T08:12:45.363Z,152195.44
2019-05-26T08:15:12.295Z,152323.44
2019-05-26T08:17:38.829Z,152412.23
2019-05-26T08:20:07.262Z,63265.15
2019-05-26T08:22:33.776Z,63085.94
2019-05-26T08:25:00.644Z,59669.14
2019-05-26T08:27:27.158Z,36821.68
2019-05-26T08:29:53.719Z,24612.98
2019-05-26T08:32:20.240Z,6033.57
2019-05-26T08:34:46.810Z,7867.08
2019-05-26T08:37:13.441Z,3112.48
2019-05-26T08:39:39.978Z,-909.65
2019-05-26T08:42:06.588Z,-21018.97
2019-05-26T08:44:33.129Z,-23232.82
2019-05-26T08:46:59.647Z,-23234.72
2019-05-26T08:49:26.249Z,-23243.50
2019-05-26T08:51:52.762Z,-23250.82
2019-05-26T08:54:19.429Z,-23225.35
2019-05-26T08:56:45.964Z,-23201.46
2019-05-26T08:59:12.553Z,-23189.00
2019-05-26T09:01:39.185Z,-23190.02
2019-05-26T09:04:05.709Z,-23182.09
2019-05-26T09:06:32.249Z,-23186.94
2019-05-26T09:08:58.764Z,-23201.75
2019-05-26T09:11:25.340Z,-23218.76
2019-05-26T09:13:54.128Z,-23225.94
2019-05-26T09:16:20.763Z,-23224.47
2019-05-26T09:18:47.340Z,-23202.49
2019-05-26T09:21:13.874Z,-23212.75
2019-05-26T09:23:40.846Z,-23224.04
2019-05-26T09:26:07.425Z,-23243.95
2019-05-26T09:28:35.055Z,-23243.95
2019-05-26T09:31:01.744Z,-23269.53
2019-05-26T09:33:28.344Z,-23190.17
2019-05-26T09:35:54.879Z,-23200.29
2019-05-26T09:38:21.508Z,-23198.23
2019-05-26T09:40:48.029Z,-23180.04
2019-05-26T09:43:16.819Z,-22331.95
2019-05-26T09:45:43.518Z,-21770.46
2019-05-26T09:48:10.036Z,-20910.74
2019-05-26T09:50:36.569Z,-23211.28
2019-05-26T09:53:03.189Z,25965.96
2019-05-26T09:55:29.706Z,62976.39
2019-05-26T09:57:56.228Z,58878.77
2019-05-26T10:00:23.044Z,53025.68
2019-05-26T10:02:49.575Z,48787.62
2019-05-26T10:05:16.596Z,44772.45
2019-05-26T10:07:43.321Z,40861.73
2019-05-26T10:10:11.958Z,38085.59
2019-05-26T10:12:38.482Z,33703.66
2019-05-26T10:15:06.016Z,34380.77
2019-05-26T10:17:32.541Z,34516.72
2019-05-26T10:19:59.060Z,34574.23
2019-05-26T10:22:25.612Z,32605.86
2019-05-26T10:24:52.205Z,30865.44
2019-05-26T10:27:18.742Z,30722.69
2019-05-26T10:29:45.273Z,31016.84
2019-05-26T10:32:11.864Z,32996.11
2019-05-26T10:34:38.373Z,32685.84
2019-05-26T10:37:04.992Z,32225.09
2019-05-26T10:39:31.510Z,34848.53
2019-05-26T10:41:58.310Z,35842.55
2019-05-26T10:44:24.837Z,36978.80
2019-05-26T10:46:51.365Z,38242.05
2019-05-26T10:49:18.074Z,38814.55
2019-05-26T10:51:44.762Z,39232.90
2019-05-26T10:54:11.445Z,40282.43
2019-05-26T10:56:38.362Z,41838.34
2019-05-26T10:59:05.064Z,39899.12
2019-05-26T11:01:31.911Z,36719.63
2019-05-26T11:03:58.491Z,31050.45
2019-05-26T11:06:25.503Z,34134.75
2019-05-26T11:08:53.252Z,29969.81
2019-05-26T11:11:20.313Z,27077.22
2019-05-26T11:14:01.855Z,58799.05
2019-05-26T11:16:16.928Z,62962.34
2019-05-26T11:18:43.703Z,62968.88
2019-05-26T11:21:12.311Z,62965.05
2019-05-26T11:23:39.739Z,62966.46
2019-05-26T11:26:06.380Z,63019.31
2019-05-26T11:28:32.925Z,63008.99
2019-05-26T11:31:00.006Z,62998.15
2019-05-26T11:33:26.786Z,63003.17
2019-05-26T11:35:53.324Z,63020.87
2019-05-26T11:38:20.377Z,63041.14
2019-05-26T11:40:47.023Z,63068.78
2019-05-26T11:43:16.721Z,63089.62
2019-05-26T11:45:42.077Z,63096.56
2019-05-26T11:48:08.657Z,63103.07
2019-05-26T11:50:35.264Z,63110.77
2019-05-26T11:53:01.830Z,63102.72
2019-05-26T11:55:28.433Z,63123.18
2019-05-26T11:57:54.965Z,63139.21
2019-05-26T12:00:21.811Z,63149.37
2019-05-26T12:02:48.367Z,63176.73
2019-05-26T12:05:17.720Z,63200.64
2019-05-26T12:07:43.919Z,63204.45
2019-05-26T12:10:13.783Z,63198.14
2019-05-26T12:12:39.536Z,63198.70
2019-05-26T12:15:12.613Z,63224.57
2019-05-26T12:17:39.252Z,63242.68
2019-05-26T12:20:06.573Z,63232.50
2019-05-26T12:22:33.098Z,63220.11
2019-05-26T12:25:00.326Z,63225.81
2019-05-26T12:27:26.951Z,63258.70
2019-05-26T12:29:53.579Z,63308.68
2019-05-26T12:32:20.192Z,63293.10
2019-05-26T12:34:46.833Z,63286.81
2019-05-26T12:37:13.427Z,63307.21
2019-05-26T12:39:39.954Z,63343.82
2019-05-26T12:42:06.654Z,63373.68
2019-05-26T12:44:48.241Z,63342.79
2019-05-26T12:47:01.909Z,63298.94
2019-05-26T12:49:28.513Z,63277.83
2019-05-26T12:51:55.031Z,63282.89
2019-05-26T12:54:21.620Z,63285.68
2019-05-26T12:56:48.158Z,63297.69
2019-05-26T12:59:14.848Z,63325.51
2019-05-26T13:01:41.458Z,63317.19
2019-05-26T13:04:08.019Z,63307.99
2019-05-26T13:06:34.599Z,63312.13
2019-05-26T13:09:01.283Z,63305.31
2019-05-26T13:11:27.904Z,63308.34
2019-05-26T13:13:54.437Z,63299.14
2019-05-26T13:16:20.964Z,63338.09
2019-05-26T13:18:47.502Z,63334.36
2019-05-26T13:21:14.092Z,63322.92
2019-05-26T13:23:40.636Z,63322.70
2019-05-26T13:26:07.170Z,63380.05
2019-05-26T13:28:33.703Z,63379.86
2019-05-26T13:31:00.249Z,63360.18
2019-05-26T13:33:26.786Z,63379.86
2019-05-26T13:35:53.311Z,63332.75
2019-05-26T13:38:19.838Z,63352.89
2019-05-26T13:40:46.368Z,63384.34
2019-05-26T13:43:12.898Z,63455.56
2019-05-26T13:45:39.437Z,63447.21
2019-05-26T13:48:06.049Z,63467.79
2019-05-26T13:50:32.593Z,63461.05
2019-05-26T13:52:59.116Z,63381.10
2019-05-26T13:55:25.665Z,63414.23
2019-05-26T13:57:52.187Z,63472.73
2019-05-26T14:00:21.225Z,63480.05
2019-05-26T14:02:47.928Z,63428.82
2019-05-26T14:05:15.768Z,63391.41
2019-05-26T14:07:42.347Z,63414.34
2019-05-26T14:10:09.377Z,63401.87
2019-05-26T14:12:35.898Z,63405.37
2019-05-26T14:15:08.083Z,63378.85
2019-05-26T14:17:36.427Z,63360.88
2019-05-26T14:20:06.103Z,63345.37
2019-05-26T14:22:32.608Z,63319.14
2019-05-26T14:24:59.177Z,63344.04
2019-05-26T14:27:25.700Z,63371.78
2019-05-26T14:29:52.251Z,63391.90
2019-05-26T14:32:19.848Z,63404.68
2019-05-26T14:34:46.391Z,63399.06
2019-05-26T14:37:12.965Z,63435.70
2019-05-26T14:39:40.606Z,63400.11
2019-05-26T14:42:07.215Z,63370.78
2019-05-26T14:44:33.758Z,63393.10
2019-05-26T14:47:00.397Z,63400.86
2019-05-26T14:49:26.917Z,63394.91
2019-05-26T14:51:53.450Z,50759.46
2019-05-26T14:54:19.995Z,36848.52
2019-05-26T14:56:46.516Z,38201.91
2019-05-26T14:59:13.060Z,36116.23
2019-05-26T15:01:39.602Z,35648.93
2019-05-26T15:04:06.221Z,36061.05
2019-05-26T15:06:32.807Z,36586.48
2019-05-26T15:08:59.345Z,40322.78
2019-05-26T15:11:25.952Z,40732.11
2019-05-26T15:13:52.474Z,39824.84
2019-05-26T15:16:19.007Z,37692.63
2019-05-26T15:18:45.526Z,34987.46
2019-05-26T15:21:12.154Z,35180.53
2019-05-26T15:23:39.275Z,28594.05
2019-05-26T15:26:05.885Z,-6180.93
2019-05-26T15:28:32.407Z,-23222.13
2019-05-26T15:30:58.956Z,-23227.70
2019-05-26T15:33:25.579Z,-23236.48
2019-05-26T15:35:52.115Z,-23228.57
2019-05-26T15:38:18.661Z,-23229.50
2019-05-26T15:40:45.367Z,-23065.53
2019-05-26T15:43:12.018Z,-23067.56
2019-05-26T15:45:38.778Z,-23068.43
2019-05-26T15:48:05.410Z,-22555.47
2019-05-26T15:50:32.051Z,-22382.05
2019-05-26T15:52:58.729Z,-22213.04
2019-05-26T15:55:25.222Z,-22217.20
2019-05-26T15:58:08.138Z,-22221.07
2019-05-26T16:00:34.678Z,-22222.45
2019-05-26T16:03:01.205Z,-21887.19
2019-05-26T16:05:27.759Z,-21725.14
2019-05-26T16:07:54.658Z,-21045.80
2019-05-26T16:10:21.217Z,-21047.73
2019-05-26T16:12:47.953Z,-20714.69
2019-05-26T16:15:16.173Z,-20212.66
2019-05-26T16:17:42.702Z,-19876.97
2019-05-26T16:20:10.045Z,-19710.14
2019-05-26T16:22:36.565Z,-19706.59
2019-05-26T16:25:04.785Z,-20043.54
2019-05-26T16:27:31.315Z,-19372.51
2019-05-26T16:29:57.830Z,-18868.32
2019-05-26T16:32:24.572Z,-18870.77
2019-05-26T16:34:51.167Z,-18869.77
2019-05-26T16:37:17.681Z,-18533.79
2019-05-26T16:39:44.217Z,-18199.57
2019-05-26T16:42:10.741Z,-18533.90
2019-05-26T16:44:37.300Z,-17865.00
2019-05-26T16:47:03.945Z,-17531.64
2019-05-26T16:49:30.580Z,-17030.09
2019-05-26T16:51:57.131Z,-16190.65
2019-05-26T16:54:23.656Z,-16856.29
2019-05-26T16:56:50.205Z,-17689.86
2019-05-26T16:59:16.725Z,-18359.43
2019-05-26T17:01:43.258Z,-18357.60
2019-05-26T17:04:09.886Z,-17856.21
2019-05-26T17:06:36.522Z,-17858.59
2019-05-26T17:09:07.467Z,-17857.87
2019-05-26T17:11:34.005Z,-18527.37
2019-05-26T17:14:00.649Z,-18359.96
2019-05-26T17:16:27.173Z,-18191.08
2019-05-26T17:18:53.718Z,-18688.60
2019-05-26T17:21:20.344Z,-18856.05
2019-05-26T17:23:46.857Z,-19191.52
2019-05-26T17:26:13.380Z,-19024.06
2019-05-26T17:28:39.963Z,-18857.50
2019-05-26T17:31:06.533Z,-18690.37
2019-05-26T17:33:33.108Z,-19356.33
2019-05-26T17:35:59.616Z,-19521.08
2019-05-26T17:38:26.195Z,-19854.12
2019-05-26T17:40:52.709Z,-20017.16
2019-05-26T17:43:19.250Z,-20514.25
2019-05-26T17:45:45.753Z,-20844.67
2019-05-26T17:48:12.338Z,-21348.40
2019-05-26T17:50:38.858Z,-21351.70
2019-05-26T17:53:05.410Z,-21186.70
2019-05-26T17:55:31.927Z,-21524.38
2019-05-26T17:57:58.465Z,-21192.18
2019-05-26T18:00:25.093Z,-20689.67
2019-05-26T18:02:51.632Z,-20522.27
2019-05-26T18:05:18.253Z,-20520.76
2019-05-26T18:07:44.792Z,-20686.64
2019-05-26T18:10:12.631Z,-21021.66
2019-05-26T18:12:39.198Z,-21186.31
2019-05-26T18:15:07.907Z,-21353.02
2019-05-26T18:17:46.387Z,-21015.71
2019-05-26T18:20:06.310Z,-21014.29
2019-05-26T18:22:33.109Z,-21348.93
2019-05-26T18:24:59.774Z,-21182.26
2019-05-26T18:27:26.388Z,-21181.86
2019-05-26T18:29:52.910Z,-21512.79
2019-05-26T18:32:19.441Z,-21843.71
2019-05-26T18:34:45.974Z,-21842.35
2019-05-26T18:37:12.507Z,-22008.23
2019-05-26T18:39:40.110Z,-22006.58
2019-05-26T18:42:06.630Z,-22170.07
2019-05-26T18:44:33.173Z,-22333.06
2019-05-26T18:46:59.707Z,-22497.40
2019-05-26T18:49:26.231Z,-22661.68
2019-05-26T18:51:52.860Z,-22661.26
2019-05-26T18:54:19.622Z,-22824.91
2019-05-26T18:56:46.147Z,-22821.73
2019-05-26T18:59:12.694Z,-22820.43
2019-05-26T19:01:39.232Z,-22817.26
2019-05-26T19:04:05.780Z,-22814.23
2019-05-26T19:06:32.292Z,-22978.02
2019-05-26T19:08:58.833Z,-22976.42
2019-05-26T19:11:25.352Z,-22974.52
2019-05-26T19:13:51.888Z,-22973.07
2019-05-26T19:16:18.508Z,-23137.78
2019-05-26T19:18:45.096Z,-23135.72
2019-05-26T19:21:11.645Z,-22969.57
2019-05-26T19:23:38.254Z,-22968.11
2019-05-26T19:26:04.884Z,-23132.19
2019-05-26T19:28:31.444Z,-23130.72
2019-05-26T19:30:57.976Z,-23128.95
2019-05-26T19:33:24.522Z,-23127.63
2019-05-26T19:35:51.071Z,-23126.30
2019-05-26T19:38:17.594Z,-23125.57
2019-05-26T19:40:44.140Z,-23124.83
2019-05-26T19:43:10.733Z,-23122.77
2019-05-26T19:45:38.012Z,-23122.48
2019-05-26T19:48:04.620Z,-23122.48
2019-05-26T19:50:31.823Z,-23122.48
2019-05-26T19:52:58.500Z,-23122.04
2019-05-26T19:55:25.053Z,-23121.75
2019-05-26T19:57:51.691Z,-22956.16
2019-05-26T20:00:19.160Z,-22956.16
2019-05-26T20:02:45.954Z,-22789.83
2019-05-26T20:05:12.685Z,-22789.25
2019-05-26T20:07:39.225Z,-22954.25
2019-05-26T20:10:07.802Z,-22787.51
2019-05-26T20:12:34.523Z,-22951.20
2019-05-26T20:15:01.200Z,-22950.90
2019-05-26T20:17:27.719Z,-22950.90
2019-05-26T20:19:54.250Z,-22785.63
2019-05-26T20:22:24.309Z,-22786.36
2019-05-26T20:24:49.248Z,-22618.77
2019-05-26T20:27:15.773Z,-22782.60
2019-05-26T20:29:42.305Z,-22781.73
2019-05-26T20:32:08.839Z,-22782.02
2019-05-26T20:34:35.434Z,-22616.19
2019-05-26T20:37:01.984Z,-22614.48
2019-05-26T20:39:28.514Z,-22449.51
2019-05-26T20:41:55.050Z,-22450.50
2019-05-26T20:44:21.581Z,-22449.22
2019-05-26T20:46:48.101Z,-22447.38
2019-05-26T20:49:14.636Z,-22445.25
2019-05-26T20:51:41.259Z,-22609.18
2019-05-26T20:54:07.799Z,-22606.31
2019-05-26T20:56:34.424Z,-22605.74
2019-05-26T20:59:00.959Z,-22771.18
2019-05-26T21:01:27.601Z,-22769.73
2019-05-26T21:03:54.129Z,-22767.71
2019-05-26T21:06:20.671Z,-22931.64
2019-05-26T21:08:47.214Z,-22931.93
2019-05-26T21:11:13.762Z,-22931.49
2019-05-26T21:13:40.371Z,-22931.93
2019-05-26T21:16:06.908Z,-22766.70
2019-05-26T21:18:33.451Z,-22931.06
2019-05-26T21:21:00.002Z,-22929.02
2019-05-26T21:23:26.524Z,-22927.99
2019-05-26T21:25:53.067Z,-22926.97
2019-05-26T21:28:19.601Z,-22926.68
2019-05-26T21:30:46.132Z,-22926.09
2019-05-26T21:33:12.684Z,-22922.59
2019-05-26T21:35:39.290Z,-22921.86
2019-05-26T21:38:05.849Z,-23085.06
2019-05-26T21:40:32.498Z,-23083.59
2019-05-26T21:42:59.063Z,-23081.96
2019-05-26T21:45:26.688Z,-23080.93
2019-05-26T21:47:53.215Z,-23080.64
2019-05-26T21:50:19.745Z,-23083.87
2019-05-26T21:52:46.373Z,-23085.50
2019-05-26T21:55:12.908Z,-22921.86
2019-05-26T21:57:39.440Z,-22921.42
2019-05-26T22:00:10.206Z,-22919.07
2019-05-26T22:02:36.725Z,-22914.40
2019-05-26T22:05:06.684Z,-23076.07
2019-05-26T22:07:33.200Z,-23072.67
2019-05-26T22:09:59.922Z,-23072.17
2019-05-26T22:12:26.467Z,-23071.14
2019-05-26T22:14:52.990Z,-23068.04
2019-05-26T22:17:19.522Z,-23065.68
2019-05-26T22:19:46.051Z,-23065.08
2019-05-26T22:22:12.689Z,-23065.68
2019-05-26T22:24:39.206Z,-23064.49
2019-05-26T22:27:05.748Z,-23063.31
2019-05-26T22:29:32.364Z,-23062.72
2019-05-26T22:31:58.917Z,-23061.84
2019-05-26T22:34:25.484Z,-23061.69
2019-05-26T22:36:52.088Z,-23059.63
2019-05-26T22:39:18.623Z,-23060.07
2019-05-26T22:41:45.909Z,-23058.89
2019-05-26T22:44:12.533Z,-23057.41
2019-05-26T22:46:39.066Z,-23056.52
2019-05-26T22:49:05.593Z,-23054.46
2019-05-26T22:51:32.128Z,-23051.36
2019-05-26T22:53:58.740Z,-23047.96
2019-05-26T22:56:25.227Z,-23047.07
2019-05-26T22:58:51.829Z,-23047.07
2019-05-26T23:01:18.453Z,-23047.07
2019-05-26T23:03:45.087Z,-23048.11
2019-05-26T23:06:11.684Z,-23050.03
2019-05-26T23:08:38.212Z,-23052.09
2019-05-26T23:11:04.788Z,-23054.61
2019-05-26T23:13:31.321Z,-23054.90
2019-05-26T23:15:57.847Z,-23055.34
2019-05-26T23:18:24.392Z,-23056.82
2019-05-26T23:20:50.979Z,-23056.38
2019-05-26T23:23:17.589Z,-23056.52
2019-05-26T23:25:44.132Z,-23056.97
2019-05-26T23:28:10.771Z,-23057.41
2019-05-26T23:30:37.291Z,-23056.52
2019-05-26T23:33:03.834Z,-23055.93
2019-05-26T23:35:30.436Z,-23054.75
2019-05-26T23:37:56.972Z,-23054.46
2019-05-26T23:40:23.507Z,-23054.61
2019-05-26T23:42:50.038Z,-23053.86
2019-05-26T23:45:16.598Z,-23053.13
2019-05-26T23:47:43.443Z,-23053.57
2019-05-26T23:50:10.780Z,-23051.80
2019-05-26T23:52:37.309Z,-23050.91
2019-05-26T23:55:05.043Z,-23050.62
2019-05-26T23:57:31.572Z,-23050.62
2019-05-26T23:59:58.101Z,-23050.62
